Terminal Aerodrome Forecast
Issued by NWS Sterling, VA

Current Version | Previous Version | Text Only | Print | Product List | Glossary Off
Versions: 1 2 3 4 5 6 7 8 9 10 11 12 13 14 15 16 17 18 19 20 21 22 23

000
FTUS41 KLWX 212000 AAA
TAFDCA
TAF AMD
KDCA 212043Z 2121/2218 28006KT 5SM SHRA VCTS SCT025CB BKN150
     FM212200 24005KT P6SM BKN050
     FM220400 30004KT P6SM BKN110
     FM221300 34004KT P6SM BKN150=

USA.gov is the U.S. government's official web portal to all federal, state and local government web resources and services.